createdAt,value
2017-08-26T00:01:40.867Z,23.11
2017-08-26T00:04:08.390Z,23.08
2017-08-26T00:06:35.972Z,23.08
2017-08-26T00:09:03.506Z,23.02
2017-08-26T00:11:31.310Z,23.07
2017-08-26T00:13:58.901Z,23.06
2017-08-26T00:16:26.431Z,23.04
2017-08-26T00:18:53.969Z,23.05
2017-08-26T00:21:21.589Z,23.03
2017-08-26T00:23:49.171Z,23.03
2017-08-26T00:26:16.728Z,22.96
2017-08-26T00:28:44.277Z,23.01
2017-08-26T00:31:11.947Z,23.00
2017-08-26T00:33:39.472Z,22.98
2017-08-26T00:36:06.983Z,22.97
2017-08-26T00:38:34.557Z,22.98
2017-08-26T00:41:02.065Z,22.96
2017-08-26T00:43:29.578Z,22.95
2017-08-26T00:45:57.170Z,22.95
2017-08-26T00:48:24.726Z,22.94
2017-08-26T00:50:52.369Z,22.92
2017-08-26T00:53:19.925Z,22.93
2017-08-26T00:55:47.471Z,22.92
2017-08-26T00:58:15.005Z,22.87
2017-08-26T01:00:42.535Z,22.86
2017-08-26T01:03:10.089Z,22.89
2017-08-26T01:05:37.645Z,22.89
2017-08-26T01:08:05.210Z,22.88
2017-08-26T01:10:32.784Z,22.86
2017-08-26T01:13:00.335Z,22.82
2017-08-26T01:15:27.843Z,22.85
2017-08-26T01:17:55.420Z,22.84
2017-08-26T01:20:23.001Z,22.82
2017-08-26T01:22:50.713Z,22.82
2017-08-26T01:25:18.252Z,22.81
2017-08-26T01:27:45.870Z,22.80
2017-08-26T01:30:13.487Z,22.78
2017-08-26T01:32:41.025Z,22.77
2017-08-26T01:35:08.550Z,22.75
2017-08-26T01:37:36.107Z,22.76
2017-08-26T01:40:03.625Z,22.74
2017-08-26T01:42:31.125Z,22.73
2017-08-26T01:44:58.684Z,22.72
2017-08-26T01:47:26.246Z,22.71
2017-08-26T01:49:53.848Z,22.69
2017-08-26T01:52:21.402Z,22.67
2017-08-26T01:54:49.003Z,22.68
2017-08-26T01:57:16.571Z,22.67
2017-08-26T01:59:44.181Z,22.67
2017-08-26T02:02:11.698Z,22.66
2017-08-26T02:04:39.214Z,22.64
2017-08-26T02:07:06.797Z,22.64
2017-08-26T02:09:34.309Z,22.61
2017-08-26T02:12:01.805Z,22.63
2017-08-26T02:14:29.345Z,22.61
2017-08-26T02:16:56.888Z,22.60
2017-08-26T02:19:24.441Z,22.59
2017-08-26T02:21:52.062Z,22.57
2017-08-26T02:24:19.617Z,22.55
2017-08-26T02:26:47.186Z,22.54
2017-08-26T02:29:14.701Z,22.56
2017-08-26T02:31:42.358Z,22.54
2017-08-26T02:34:09.862Z,22.54
2017-08-26T02:36:37.453Z,22.52
2017-08-26T02:39:04.977Z,22.53
2017-08-26T02:41:32.606Z,22.51
2017-08-26T02:44:00.197Z,22.51
2017-08-26T02:46:27.744Z,22.49
2017-08-26T02:48:55.302Z,22.50
2017-08-26T02:51:22.901Z,22.47
2017-08-26T02:53:50.420Z,22.42
2017-08-26T02:56:17.990Z,22.45
2017-08-26T02:58:45.619Z,22.46
2017-08-26T03:01:13.136Z,22.46
2017-08-26T03:03:40.731Z,22.44
2017-08-26T03:06:08.289Z,22.42
2017-08-26T03:08:35.873Z,22.43
2017-08-26T03:11:03.478Z,22.40
2017-08-26T03:13:31.028Z,22.40
2017-08-26T03:15:58.549Z,22.41
2017-08-26T03:18:26.095Z,22.35
2017-08-26T03:20:53.841Z,22.39
2017-08-26T03:23:21.413Z,22.39
2017-08-26T03:25:49.023Z,22.35
2017-08-26T03:28:16.531Z,22.36
2017-08-26T03:30:44.119Z,22.33
2017-08-26T03:33:11.685Z,22.33
2017-08-26T03:35:39.197Z,22.35
2017-08-26T03:38:06.741Z,22.33
2017-08-26T03:40:34.257Z,22.31
2017-08-26T03:43:01.817Z,22.31
2017-08-26T03:45:29.344Z,22.32
2017-08-26T03:47:56.845Z,22.32
2017-08-26T03:50:24.417Z,22.29
2017-08-26T03:52:52.056Z,22.28
2017-08-26T03:55:19.641Z,22.29
2017-08-26T03:57:47.191Z,22.26
2017-08-26T04:00:14.750Z,22.28
2017-08-26T04:02:42.379Z,22.27
2017-08-26T04:05:09.917Z,22.26
2017-08-26T04:07:37.455Z,22.28
2017-08-26T04:10:05.001Z,22.23
2017-08-26T04:12:32.525Z,22.38
2017-08-26T04:15:00.073Z,22.58
2017-08-26T04:17:27.613Z,22.75
2017-08-26T04:19:55.230Z,22.89
2017-08-26T04:22:22.823Z,22.69
2017-08-26T04:24:50.391Z,22.78
2017-08-26T04:27:17.916Z,22.79
2017-08-26T04:29:45.462Z,22.88
2017-08-26T04:32:13.018Z,22.90
2017-08-26T04:34:40.524Z,22.97
2017-08-26T04:37:08.084Z,22.97
2017-08-26T04:39:35.634Z,22.93
2017-08-26T04:42:03.248Z,22.95
2017-08-26T04:44:30.807Z,23.07
2017-08-26T04:46:58.612Z,23.19
2017-08-26T04:49:26.114Z,23.12
2017-08-26T04:51:53.637Z,23.11
2017-08-26T04:54:21.201Z,23.15
2017-08-26T04:56:48.728Z,23.12
2017-08-26T04:59:16.421Z,23.06
2017-08-26T05:01:44.024Z,23.03
2017-08-26T05:04:11.533Z,23.03
2017-08-26T05:06:39.119Z,23.04
2017-08-26T05:09:06.628Z,23.04
2017-08-26T05:11:34.188Z,23.06
2017-08-26T05:14:01.709Z,23.05
2017-08-26T05:16:29.207Z,23.06
2017-08-26T05:18:56.808Z,23.07
2017-08-26T05:21:24.341Z,23.09
2017-08-26T05:23:51.934Z,23.12
2017-08-26T05:26:19.601Z,23.14
2017-08-26T05:28:47.111Z,23.10
2017-08-26T05:31:14.684Z,23.16
2017-08-26T05:33:42.201Z,23.19
2017-08-26T05:36:09.709Z,23.20
2017-08-26T05:38:37.253Z,23.23
2017-08-26T05:41:04.772Z,23.23
2017-08-26T05:43:32.278Z,23.28
2017-08-26T05:45:59.853Z,23.30
2017-08-26T05:48:27.356Z,23.31
2017-08-26T05:50:54.874Z,23.33
2017-08-26T05:53:22.471Z,23.38
2017-08-26T05:55:49.973Z,23.39
2017-08-26T05:58:17.496Z,23.40
2017-08-26T06:00:45.091Z,23.46
2017-08-26T06:03:12.602Z,23.46
2017-08-26T06:05:40.149Z,23.50
2017-08-26T06:08:07.656Z,23.47
2017-08-26T06:13:09.030Z,23.59
2017-08-26T06:15:36.532Z,23.63
2017-08-26T06:18:04.098Z,23.61
2017-08-26T06:20:31.628Z,23.67
2017-08-26T06:22:59.217Z,23.70
2017-08-26T06:25:26.741Z,23.71
2017-08-26T06:27:54.287Z,23.72
2017-08-26T06:30:21.832Z,23.78
2017-08-26T06:32:49.375Z,23.80
2017-08-26T06:35:16.960Z,23.80
2017-08-26T06:37:44.470Z,23.86
2017-08-26T06:40:12.008Z,23.88
2017-08-26T06:42:39.580Z,23.92
2017-08-26T06:45:07.113Z,23.94
2017-08-26T06:47:34.636Z,23.96
2017-08-26T06:50:02.283Z,23.99
2017-08-26T06:52:29.869Z,24.01
2017-08-26T06:54:57.449Z,24.03
2017-08-26T06:57:25.020Z,24.05
2017-08-26T06:59:52.549Z,24.09
2017-08-26T07:02:20.123Z,24.10
2017-08-26T07:04:47.681Z,24.07
2017-08-26T07:07:15.286Z,24.15
2017-08-26T07:09:42.849Z,24.16
2017-08-26T07:12:10.429Z,24.16
2017-08-26T07:14:37.982Z,24.15
2017-08-26T07:17:05.537Z,24.20
2017-08-26T07:19:33.066Z,24.23
2017-08-26T07:22:00.610Z,24.25
2017-08-26T07:24:28.146Z,24.27
2017-08-26T07:26:55.752Z,24.28
2017-08-26T07:29:23.263Z,24.30
2017-08-26T07:31:50.893Z,24.32
2017-08-26T07:34:18.471Z,24.33
2017-08-26T07:36:46.032Z,24.32
2017-08-26T07:39:13.645Z,24.38
2017-08-26T07:41:41.153Z,24.40
2017-08-26T07:44:08.716Z,24.41
2017-08-26T07:46:36.248Z,24.47
2017-08-26T07:49:03.798Z,24.50
2017-08-26T07:51:31.333Z,24.56
2017-08-26T07:53:58.839Z,24.60
2017-08-26T07:56:26.375Z,24.66
2017-08-26T07:58:53.921Z,24.69
2017-08-26T08:01:21.462Z,24.70
2017-08-26T08:03:49.065Z,24.74
2017-08-26T08:06:16.584Z,24.75
2017-08-26T08:08:44.225Z,24.79
2017-08-26T08:11:11.730Z,24.82
2017-08-26T08:13:39.305Z,24.79
2017-08-26T08:16:06.818Z,24.84
2017-08-26T08:18:34.320Z,24.87
2017-08-26T08:21:01.872Z,24.92
2017-08-26T08:23:29.382Z,24.90
2017-08-26T08:25:56.934Z,24.96
2017-08-26T08:28:24.489Z,24.91
2017-08-26T08:30:52.110Z,24.95
2017-08-26T08:33:19.662Z,24.94
2017-08-26T08:35:47.173Z,24.99
2017-08-26T08:38:14.723Z,25.03
2017-08-26T08:40:42.273Z,25.05
2017-08-26T08:43:09.831Z,25.07
2017-08-26T08:45:37.361Z,25.09
2017-08-26T08:48:04.865Z,25.10
2017-08-26T08:50:32.465Z,25.11
2017-08-26T08:52:59.971Z,25.13
2017-08-26T08:55:27.521Z,25.13
2017-08-26T08:57:55.049Z,25.15
2017-08-26T09:00:22.603Z,25.18
2017-08-26T09:02:50.191Z,25.06
2017-08-26T09:05:17.697Z,25.14
2017-08-26T09:07:45.226Z,25.11
2017-08-26T09:10:12.777Z,25.13
2017-08-26T09:12:40.353Z,25.21
2017-08-26T09:15:07.867Z,25.22
2017-08-26T09:17:35.398Z,25.20
2017-08-26T09:20:03.049Z,25.24
2017-08-26T09:22:30.597Z,25.24
2017-08-26T09:24:58.149Z,25.22
2017-08-26T09:27:25.743Z,25.22
2017-08-26T09:29:53.293Z,25.27
2017-08-26T09:32:20.834Z,25.24
2017-08-26T09:34:48.449Z,25.30
2017-08-26T09:37:16.056Z,25.29
2017-08-26T09:39:43.571Z,25.30
2017-08-26T09:42:11.097Z,25.28
2017-08-26T09:44:38.680Z,25.31
2017-08-26T09:47:06.246Z,25.34
2017-08-26T09:49:33.756Z,25.36
2017-08-26T09:52:01.254Z,25.38
2017-08-26T09:54:28.814Z,25.38
2017-08-26T09:56:56.356Z,25.39
2017-08-26T09:59:23.939Z,25.40
2017-08-26T10:01:51.597Z,25.42
2017-08-26T10:04:19.242Z,25.42
2017-08-26T10:06:46.805Z,25.42
2017-08-26T10:09:14.369Z,25.41
2017-08-26T10:11:41.940Z,25.44
2017-08-26T10:14:09.509Z,25.44
2017-08-26T10:16:37.025Z,25.45
2017-08-26T10:19:04.533Z,25.47
2017-08-26T10:21:32.079Z,25.44
2017-08-26T10:23:59.591Z,25.47
2017-08-26T10:26:27.150Z,25.51
2017-08-26T10:28:54.730Z,25.53
2017-08-26T10:31:22.342Z,25.52
2017-08-26T10:33:49.936Z,25.55
2017-08-26T10:36:17.495Z,25.54
2017-08-26T10:38:45.073Z,25.56
2017-08-26T10:41:12.628Z,25.56
2017-08-26T10:43:40.190Z,25.57
2017-08-26T10:46:07.732Z,25.57
2017-08-26T10:48:35.294Z,25.59
2017-08-26T10:51:02.822Z,25.61
2017-08-26T10:53:30.383Z,25.62
2017-08-26T10:55:57.885Z,25.64
2017-08-26T10:58:25.569Z,25.66
2017-08-26T11:00:53.210Z,25.65
2017-08-26T11:03:20.786Z,25.67
2017-08-26T11:05:48.372Z,25.68
2017-08-26T11:08:15.946Z,25.65
2017-08-26T11:10:43.474Z,25.70
2017-08-26T11:13:10.980Z,25.70
2017-08-26T11:15:38.553Z,25.74
2017-08-26T11:18:06.125Z,25.73
2017-08-26T11:20:33.685Z,25.73
2017-08-26T11:23:01.207Z,25.77
2017-08-26T11:25:28.758Z,25.78
2017-08-26T11:27:56.332Z,25.77
2017-08-26T11:30:23.930Z,25.79
2017-08-26T11:32:51.501Z,25.79
2017-08-26T11:35:19.109Z,25.75
2017-08-26T11:37:46.686Z,25.73
2017-08-26T11:40:14.267Z,25.82
2017-08-26T11:42:41.809Z,25.84
2017-08-26T11:45:09.371Z,25.84
2017-08-26T11:47:36.916Z,25.87
2017-08-26T11:50:04.580Z,25.87
2017-08-26T11:52:32.099Z,25.84
2017-08-26T11:54:59.665Z,25.90
2017-08-26T11:57:27.189Z,25.87
2017-08-26T11:59:54.719Z,25.89
2017-08-26T12:02:22.374Z,25.93
2017-08-26T12:04:49.913Z,25.95
2017-08-26T12:07:18.137Z,25.97
2017-08-26T12:09:45.739Z,25.93
2017-08-26T12:12:13.287Z,25.96
2017-08-26T12:14:40.861Z,25.97
2017-08-26T12:17:08.412Z,25.99
2017-08-26T12:19:35.988Z,26.02
2017-08-26T12:22:03.559Z,26.02
2017-08-26T12:24:31.146Z,26.04
2017-08-26T12:26:58.713Z,26.04
2017-08-26T12:29:26.239Z,26.01
2017-08-26T12:31:54.273Z,26.05
2017-08-26T12:34:22.057Z,26.07
2017-08-26T12:36:49.641Z,26.10
2017-08-26T12:39:17.184Z,26.09
2017-08-26T12:41:44.830Z,26.12
2017-08-26T12:44:12.454Z,26.12
2017-08-26T12:46:40.023Z,26.14
2017-08-26T12:49:07.540Z,26.11
2017-08-26T12:51:35.060Z,26.15
2017-08-26T12:54:02.622Z,26.16
2017-08-26T12:56:30.131Z,26.17
2017-08-26T12:58:57.648Z,26.18
2017-08-26T13:01:25.557Z,26.14
2017-08-26T13:03:53.065Z,26.21
2017-08-26T13:06:20.624Z,26.23
2017-08-26T13:08:48.173Z,26.23
2017-08-26T13:11:15.684Z,26.25
2017-08-26T13:13:43.270Z,26.27
2017-08-26T13:16:10.854Z,26.23
2017-08-26T13:18:38.370Z,26.27
2017-08-26T13:21:05.878Z,26.26
2017-08-26T13:23:33.541Z,26.30
2017-08-26T13:26:01.722Z,26.30
2017-08-26T13:28:29.238Z,26.32
2017-08-26T13:30:56.742Z,26.32
2017-08-26T13:33:24.313Z,26.32
2017-08-26T13:35:51.869Z,26.35
2017-08-26T13:38:19.643Z,26.34
2017-08-26T13:40:47.177Z,26.36
2017-08-26T13:43:15.033Z,26.35
2017-08-26T13:45:42.914Z,26.37
2017-08-26T13:48:10.428Z,26.37
2017-08-26T13:50:37.974Z,26.38
2017-08-26T13:53:05.561Z,26.39
2017-08-26T13:55:33.130Z,26.40
2017-08-26T13:58:11.423Z,26.39
2017-08-26T14:00:40.779Z,26.42
2017-08-26T14:03:08.346Z,26.41
2017-08-26T14:05:35.853Z,26.44
2017-08-26T14:08:03.445Z,26.40
2017-08-26T14:10:30.980Z,26.45
2017-08-26T14:12:58.493Z,26.46
2017-08-26T14:15:26.127Z,26.47
2017-08-26T14:17:53.817Z,26.47
